M70 weather

Pocahontas Municipal Airport
Pocahontas, Arkansas, United States

Public forecast

Using degrees Fahrenheit for public forecast. Weather courtesy of forecast.io.

METAR (pilot weather report)

Closest report is Walnut Ridge Regional Airport, 7.4 nm (13.7 km) SSE. Retrieved 2019/06/17 08:56 UTC (1 hour ago):

KARG 170856Z AUTO 19007KT 10SM CLR 21/19 A2986 RMK AO2 SLP111 T02110194 55002

TAF (pilot weather forecast)

Closest forecast is Jonesboro Municipal Airport, 29.0 nm (53.7 km) SSE. Retrieved 2019/06/17 06:22 UTC (4 hours ago):

TAF KJBR 170520Z 1706/1806 18006KT P6SM OVC060 FM171800 18009KT P6SM VCTS OVC050CB